Red Bluff, California
Current Conditions -  °F | °C
As of 1:42 AM on Saturday 20 Dec 2014 (Local Time) from KRBL Reporting Station
Overcast Overcast  
Wind Chill: 51°   Ceiling: 500
Heat Index: 51°   Visibility: 8mi
Dew Point: 49°   Wind: 12mph
Humidity: 92%   Direction: 160°SSE
Pressure: 30.11"   Gusts: NA
Location:  40.18°N, 122.23°W
Report Text: KRBL 200942Z AUTO 16010KT 8SM OVC005 11/09 A3011 RMK AO2 CIG 003V007 T01060094
Loading
Personal Weather Stations






























Interactive Weather Map New forecast layout! Learn more

10-Day Weather Forecast

Advertisements
Track Severe Weather on mobile